sensor_id;sensor_type;location;lat;lon;timestamp;pressure;altitude;pressure_sealevel;temperature;humidity
45888;BME280;31595;51.418;7.572;2023-03-04T00:00:13;101148.78;;;5.95;59.48
45888;BME280;31595;51.418;7.572;2023-03-04T00:02:41;101157.31;;;5.93;58.93
45888;BME280;31595;51.418;7.572;2023-03-04T00:05:13;101142.34;;;5.84;59.31
45888;BME280;31595;51.418;7.572;2023-03-04T00:07:40;101145.38;;;5.87;59.00
45888;BME280;31595;51.418;7.572;2023-03-04T00:10:10;101151.19;;;5.86;58.89
45888;BME280;31595;51.418;7.572;2023-03-04T00:12:40;101153.38;;;5.84;58.96
45888;BME280;31595;51.418;7.572;2023-03-04T00:15:08;101147.72;;;5.68;59.44
45888;BME280;31595;51.418;7.572;2023-03-04T00:17:36;101142.75;;;5.65;60.17
45888;BME280;31595;51.418;7.572;2023-03-04T00:20:07;101139.78;;;5.77;59.57
45888;BME280;31595;51.418;7.572;2023-03-04T00:22:37;101137.31;;;5.81;59.79
45888;BME280;31595;51.418;7.572;2023-03-04T00:25:05;101138.44;;;5.80;59.83
45888;BME280;31595;51.418;7.572;2023-03-04T00:27:35;101134.56;;;5.81;59.61
45888;BME280;31595;51.418;7.572;2023-03-04T00:30:04;101138.13;;;5.81;59.62
45888;BME280;31595;51.418;7.572;2023-03-04T00:32:35;101147.84;;;5.84;59.88
45888;BME280;31595;51.418;7.572;2023-03-04T00:35:03;101138.19;;;5.86;59.77
45888;BME280;31595;51.418;7.572;2023-03-04T00:37:31;101136.28;;;5.92;59.80
45888;BME280;31595;51.418;7.572;2023-03-04T00:40:00;101139.13;;;5.97;59.87
45888;BME280;31595;51.418;7.572;2023-03-04T00:42:27;101134.97;;;6.00;59.64
45888;BME280;31595;51.418;7.572;2023-03-04T00:44:55;101132.22;;;6.00;59.65
45888;BME280;31595;51.418;7.572;2023-03-04T00:47:22;101130.88;;;6.07;59.68
45888;BME280;31595;51.418;7.572;2023-03-04T00:49:53;101130.34;;;6.10;59.10
45888;BME280;31595;51.418;7.572;2023-03-04T00:52:20;101134.47;;;6.08;59.26
45888;BME280;31595;51.418;7.572;2023-03-04T00:54:49;101130.63;;;6.09;59.24
45888;BME280;31595;51.418;7.572;2023-03-04T00:57:21;101124.25;;;6.08;58.97
45888;BME280;31595;51.418;7.572;2023-03-04T00:59:48;101127.56;;;6.10;59.22
45888;BME280;31595;51.418;7.572;2023-03-04T01:02:18;101123.16;;;6.09;59.18
45888;BME280;31595;51.418;7.572;2023-03-04T01:04:46;101124.53;;;6.07;59.52
45888;BME280;31595;51.418;7.572;2023-03-04T01:07:13;101119.81;;;6.07;59.61
45888;BME280;31595;51.418;7.572;2023-03-04T01:09:41;101120.13;;;6.11;59.29
45888;BME280;31595;51.418;7.572;2023-03-04T01:12:09;101123.41;;;6.13;59.34
45888;BME280;31595;51.418;7.572;2023-03-04T01:14:38;101116.00;;;6.19;58.95
45888;BME280;31595;51.418;7.572;2023-03-04T01:17:05;101115.13;;;6.13;59.45
45888;BME280;31595;51.418;7.572;2023-03-04T01:19:34;101113.78;;;6.16;59.26
45888;BME280;31595;51.418;7.572;2023-03-04T01:22:02;101104.13;;;6.23;58.73
45888;BME280;31595;51.418;7.572;2023-03-04T01:24:30;101104.97;;;6.24;59.17
45888;BME280;31595;51.418;7.572;2023-03-04T01:26:58;101100.00;;;6.26;58.99
45888;BME280;31595;51.418;7.572;2023-03-04T01:29:29;101099.72;;;6.27;59.35
45888;BME280;31595;51.418;7.572;2023-03-04T01:31:57;101098.06;;;6.32;58.87
45888;BME280;31595;51.418;7.572;2023-03-04T01:34:25;101102.25;;;6.39;59.06
45888;BME280;31595;51.418;7.572;2023-03-04T01:36:53;101098.94;;;6.37;59.00
45888;BME280;31595;51.418;7.572;2023-03-04T01:39:20;101090.38;;;6.39;59.06
45888;BME280;31595;51.418;7.572;2023-03-04T01:41:48;101092.28;;;6.38;58.96
45888;BME280;31595;51.418;7.572;2023-03-04T01:44:15;101089.84;;;6.47;58.84
45888;BME280;31595;51.418;7.572;2023-03-04T01:46:47;101088.72;;;6.48;58.54
45888;BME280;31595;51.418;7.572;2023-03-04T01:49:20;101085.66;;;6.44;58.69
45888;BME280;31595;51.418;7.572;2023-03-04T01:51:53;101084.56;;;6.45;58.44
45888;BME280;31595;51.418;7.572;2023-03-04T01:54:23;101087.63;;;6.49;58.71
45888;BME280;31595;51.418;7.572;2023-03-04T01:56:51;101074.88;;;6.48;58.77
45888;BME280;31595;51.418;7.572;2023-03-04T01:59:20;101083.44;;;6.46;58.82
45888;BME280;31595;51.418;7.572;2023-03-04T02:01:50;101071.28;;;6.53;59.15
45888;BME280;31595;51.418;7.572;2023-03-04T02:04:21;101076.31;;;6.56;59.32
45888;BME280;31595;51.418;7.572;2023-03-04T02:06:50;101075.19;;;6.57;59.53
45888;BME280;31595;51.418;7.572;2023-03-04T02:09:18;101077.69;;;6.58;59.23
45888;BME280;31595;51.418;7.572;2023-03-04T02:11:47;101072.16;;;6.63;59.26
45888;BME280;31595;51.418;7.572;2023-03-04T02:14:21;101078.53;;;6.64;59.29
45888;BME280;31595;51.418;7.572;2023-03-04T02:19:41;101075.22;;;6.67;59.47
45888;BME280;31595;51.418;7.572;2023-03-04T02:22:22;101070.22;;;6.69;58.55
45888;BME280;31595;51.418;7.572;2023-03-04T02:24:53;101069.41;;;6.68;58.65
45888;BME280;31595;51.418;7.572;2023-03-04T02:27:28;101070.22;;;6.69;58.78
45888;BME280;31595;51.418;7.572;2023-03-04T02:29:56;101073.28;;;6.73;58.71
45888;BME280;31595;51.418;7.572;2023-03-04T02:32:24;101063.03;;;6.73;58.91
45888;BME280;31595;51.418;7.572;2023-03-04T02:34:51;101068.31;;;6.75;58.45
45888;BME280;31595;51.418;7.572;2023-03-04T02:37:19;101056.13;;;6.70;58.56
45888;BME280;31595;51.418;7.572;2023-03-04T02:39:47;101063.31;;;6.71;58.54
45888;BME280;31595;51.418;7.572;2023-03-04T02:42:16;101054.75;;;6.73;59.19
45888;BME280;31595;51.418;7.572;2023-03-04T02:44:46;101060.28;;;6.73;59.39
45888;BME280;31595;51.418;7.572;2023-03-04T02:47:16;101059.75;;;6.76;59.35
45888;BME280;31595;51.418;7.572;2023-03-04T02:49:46;101055.28;;;6.80;58.81
45888;BME280;31595;51.418;7.572;2023-03-04T02:52:18;101051.44;;;6.81;59.39
45888;BME280;31595;51.418;7.572;2023-03-04T02:54:45;101049.19;;;6.78;59.05
45888;BME280;31595;51.418;7.572;2023-03-04T02:57:13;101056.69;;;6.78;59.45
45888;BME280;31595;51.418;7.572;2023-03-04T02:59:49;101052.53;;;6.80;58.82
45888;BME280;31595;51.418;7.572;2023-03-04T03:02:20;101053.94;;;6.83;58.90
45888;BME280;31595;51.418;7.572;2023-03-04T03:04:48;101036.47;;;6.82;58.43
45888;BME280;31595;51.418;7.572;2023-03-04T03:07:15;101040.91;;;6.88;57.91
45888;BME280;31595;51.418;7.572;2023-03-04T03:09:43;101041.47;;;6.90;57.53
45888;BME280;31595;51.418;7.572;2023-03-04T03:12:10;101045.06;;;6.86;57.99
45888;BME280;31595;51.418;7.572;2023-03-04T03:14:38;101040.38;;;6.91;57.37
45888;BME280;31595;51.418;7.572;2023-03-04T03:17:07;101039.53;;;6.96;57.08
45888;BME280;31595;51.418;7.572;2023-03-04T03:19:35;101024.88;;;6.96;56.22
45888;BME280;31595;51.418;7.572;2023-03-04T03:22:02;101034.25;;;6.95;56.80
45888;BME280;31595;51.418;7.572;2023-03-04T03:24:29;101035.69;;;6.97;56.64
45888;BME280;31595;51.418;7.572;2023-03-04T03:26:57;101027.63;;;6.96;56.30
45888;BME280;31595;51.418;7.572;2023-03-04T03:29:25;101034.53;;;7.03;56.20
45888;BME280;31595;51.418;7.572;2023-03-04T03:31:53;101029.56;;;7.05;56.14
45888;BME280;31595;51.418;7.572;2023-03-04T03:34:23;101026.53;;;7.12;56.56
45888;BME280;31595;51.418;7.572;2023-03-04T03:36:50;101025.69;;;7.17;56.21
45888;BME280;31595;51.418;7.572;2023-03-04T03:39:18;101019.88;;;7.18;56.50
45888;BME280;31595;51.418;7.572;2023-03-04T03:41:46;101022.38;;;7.25;56.12
45888;BME280;31595;51.418;7.572;2023-03-04T03:44:13;101029.28;;;7.27;55.88
45888;BME280;31595;51.418;7.572;2023-03-04T03:46:41;101025.94;;;7.30;56.28
45888;BME280;31595;51.418;7.572;2023-03-04T03:49:08;101022.06;;;7.31;56.16
45888;BME280;31595;51.418;7.572;2023-03-04T03:51:37;101019.31;;;7.31;56.21
45888;BME280;31595;51.418;7.572;2023-03-04T03:54:05;101021.50;;;7.35;55.71
45888;BME280;31595;51.418;7.572;2023-03-04T03:56:32;101022.59;;;7.39;55.94
45888;BME280;31595;51.418;7.572;2023-03-04T03:59:00;101014.88;;;7.36;55.55
45888;BME280;31595;51.418;7.572;2023-03-04T04:01:27;101015.97;;;7.40;55.31
45888;BME280;31595;51.418;7.572;2023-03-04T04:03:55;101012.38;;;7.39;55.32
45888;BME280;31595;51.418;7.572;2023-03-04T04:06:22;101015.94;;;7.45;55.17
45888;BME280;31595;51.418;7.572;2023-03-04T04:08:51;101020.94;;;7.43;55.93
45888;BME280;31595;51.418;7.572;2023-03-04T04:11:18;101018.16;;;7.48;55.02
45888;BME280;31595;51.418;7.572;2023-03-04T04:13:46;101010.72;;;7.43;55.29
45888;BME280;31595;51.418;7.572;2023-03-04T04:16:13;101019.28;;;7.42;55.67
45888;BME280;31595;51.418;7.572;2023-03-04T04:18:41;101020.41;;;7.46;55.36
45888;BME280;31595;51.418;7.572;2023-03-04T04:21:09;101011.53;;;7.44;55.84
45888;BME280;31595;51.418;7.572;2023-03-04T04:23:38;101010.41;;;7.45;56.47
45888;BME280;31595;51.418;7.572;2023-03-04T04:26:09;101009.06;;;7.37;55.75
45888;BME280;31595;51.418;7.572;2023-03-04T04:28:40;101011.22;;;7.45;55.33
45888;BME280;31595;51.418;7.572;2023-03-04T04:31:09;101013.16;;;7.45;55.84
45888;BME280;31595;51.418;7.572;2023-03-04T04:33:36;101011.50;;;7.49;55.51
45888;BME280;31595;51.418;7.572;2023-03-04T04:36:04;101007.06;;;7.53;55.26
45888;BME280;31595;51.418;7.572;2023-03-04T04:38:42;101014.53;;;7.58;54.97
45888;BME280;31595;51.418;7.572;2023-03-04T04:41:21;101012.91;;;7.46;54.69
45888;BME280;31595;51.418;7.572;2023-03-04T04:43:49;101025.38;;;7.49;55.49
45888;BME280;31595;51.418;7.572;2023-03-04T04:46:17;101017.31;;;7.52;55.10
45888;BME280;31595;51.418;7.572;2023-03-04T04:48:45;101019.81;;;7.54;55.04
45888;BME280;31595;51.418;7.572;2023-03-04T04:51:13;101017.31;;;7.58;55.24
45888;BME280;31595;51.418;7.572;2023-03-04T04:53:40;101016.75;;;7.56;55.43
45888;BME280;31595;51.418;7.572;2023-03-04T04:56:13;101020.94;;;7.58;55.52
45888;BME280;31595;51.418;7.572;2023-03-04T04:58:43;101019.25;;;7.62;55.40
45888;BME280;31595;51.418;7.572;2023-03-04T05:01:12;101019.81;;;7.59;55.01
45888;BME280;31595;51.418;7.572;2023-03-04T05:03:40;101026.16;;;7.60;55.55
45888;BME280;31595;51.418;7.572;2023-03-04T05:06:10;101022.28;;;7.56;55.95
45888;BME280;31595;51.418;7.572;2023-03-04T05:08:38;101020.34;;;7.61;54.92
45888;BME280;31595;51.418;7.572;2023-03-04T05:11:06;101017.03;;;7.59;55.28
45888;BME280;31595;51.418;7.572;2023-03-04T05:13:34;101022.56;;;7.59;54.75
45888;BME280;31595;51.418;7.572;2023-03-04T05:16:06;101024.50;;;7.53;55.16
45888;BME280;31595;51.418;7.572;2023-03-04T05:18:34;101016.47;;;7.57;55.43
45888;BME280;31595;51.418;7.572;2023-03-04T05:21:02;101010.94;;;7.57;54.13
45888;BME280;31595;51.418;7.572;2023-03-04T05:23:32;101014.53;;;7.58;55.40
45888;BME280;31595;51.418;7.572;2023-03-04T05:26:06;101017.59;;;7.56;54.92
45888;BME280;31595;51.418;7.572;2023-03-04T05:28:36;101004.53;;;7.62;54.86
45888;BME280;31595;51.418;7.572;2023-03-04T05:31:05;101008.16;;;7.62;55.12
45888;BME280;31595;51.418;7.572;2023-03-04T05:33:33;101009.81;;;7.63;54.11
45888;BME280;31595;51.418;7.572;2023-03-04T05:36:01;101007.63;;;7.60;54.83
45888;BME280;31595;51.418;7.572;2023-03-04T05:38:29;101004.28;;;7.58;54.63
45888;BME280;31595;51.418;7.572;2023-03-04T05:40:58;101010.38;;;7.60;54.14
45888;BME280;31595;51.418;7.572;2023-03-04T05:43:45;101013.44;;;7.59;54.51
45888;BME280;31595;51.418;7.572;2023-03-04T05:46:15;101015.38;;;7.58;53.67
45888;BME280;31595;51.418;7.572;2023-03-04T05:48:43;101009.84;;;7.53;55.30
45888;BME280;31595;51.418;7.572;2023-03-04T05:51:11;101016.75;;;7.61;54.21
45888;BME280;31595;51.418;7.572;2023-03-04T05:53:43;101014.25;;;7.59;55.28
45888;BME280;31595;51.418;7.572;2023-03-04T05:56:13;101016.72;;;7.66;55.35
45888;BME280;31595;51.418;7.572;2023-03-04T05:58:44;101014.78;;;7.66;54.46
45888;BME280;31595;51.418;7.572;2023-03-04T06:01:14;101017.81;;;7.70;54.62
45888;BME280;31595;51.418;7.572;2023-03-04T06:03:42;101020.06;;;7.68;54.74
45888;BME280;31595;51.418;7.572;2023-03-04T06:06:14;101018.09;;;7.68;54.35
45888;BME280;31595;51.418;7.572;2023-03-04T06:08:41;101021.75;;;7.59;54.39
45888;BME280;31595;51.418;7.572;2023-03-04T06:11:12;101023.66;;;7.63;55.04
45888;BME280;31595;51.418;7.572;2023-03-04T06:13:39;101021.47;;;7.55;54.50
45888;BME280;31595;51.418;7.572;2023-03-04T06:16:08;101026.47;;;7.58;54.45
45888;BME280;31595;51.418;7.572;2023-03-04T06:18:37;101033.13;;;7.62;54.95
45888;BME280;31595;51.418;7.572;2023-03-04T06:21:05;101034.75;;;7.63;54.33
45888;BME280;31595;51.418;7.572;2023-03-04T06:23:32;101042.53;;;7.61;55.04
45888;BME280;31595;51.418;7.572;2023-03-04T06:26:00;101039.47;;;7.63;54.61
45888;BME280;31595;51.418;7.572;2023-03-04T06:28:28;101038.63;;;7.67;54.76
45888;BME280;31595;51.418;7.572;2023-03-04T06:30:56;101041.69;;;7.71;54.41
45888;BME280;31595;51.418;7.572;2023-03-04T06:33:24;101036.97;;;7.71;54.45
45888;BME280;31595;51.418;7.572;2023-03-04T06:35:55;101043.06;;;7.73;54.28
45888;BME280;31595;51.418;7.572;2023-03-04T06:38:25;101039.72;;;7.77;55.04
45888;BME280;31595;51.418;7.572;2023-03-04T06:40:53;101041.66;;;7.76;54.73
45888;BME280;31595;51.418;7.572;2023-03-04T06:43:24;101039.47;;;7.73;54.48
45888;BME280;31595;51.418;7.572;2023-03-04T06:45:51;101049.44;;;7.79;54.63
45888;BME280;31595;51.418;7.572;2023-03-04T06:48:19;101051.06;;;7.80;55.22
45888;BME280;31595;51.418;7.572;2023-03-04T06:50:57;101052.44;;;7.83;55.77
45888;BME280;31595;51.418;7.572;2023-03-04T06:53:25;101047.44;;;7.85;55.38
45888;BME280;31595;51.418;7.572;2023-03-04T06:55:58;101052.44;;;7.88;55.48
45888;BME280;31595;51.418;7.572;2023-03-04T06:58:25;101051.63;;;7.87;55.05
45888;BME280;31595;51.418;7.572;2023-03-04T07:00:54;101054.38;;;7.92;55.45
45888;BME280;31595;51.418;7.572;2023-03-04T07:03:21;101056.28;;;8.02;54.35
45888;BME280;31595;51.418;7.572;2023-03-04T07:05:49;101055.44;;;8.02;55.12
45888;BME280;31595;51.418;7.572;2023-03-04T07:08:18;101057.94;;;8.03;56.22
45888;BME280;31595;51.418;7.572;2023-03-04T07:10:48;101060.69;;;8.13;56.41
45888;BME280;31595;51.418;7.572;2023-03-04T07:13:16;101058.19;;;8.12;56.68
45888;BME280;31595;51.418;7.572;2023-03-04T07:15:43;101054.19;;;8.33;56.05
45888;BME280;31595;51.418;7.572;2023-03-04T07:18:11;101059.47;;;8.40;55.09
45888;BME280;31595;51.418;7.572;2023-03-04T07:20:38;101056.34;;;8.52;54.31
45888;BME280;31595;51.418;7.572;2023-03-04T07:23:06;101059.66;;;8.59;54.35
45888;BME280;31595;51.418;7.572;2023-03-04T07:25:35;101063.47;;;8.68;54.27
45888;BME280;31595;51.418;7.572;2023-03-04T07:28:02;101067.94;;;8.69;53.58
45888;BME280;31595;51.418;7.572;2023-03-04T07:30:30;101064.84;;;8.71;53.31
45888;BME280;31595;51.418;7.572;2023-03-04T07:33:00;101067.59;;;8.76;52.40
45888;BME280;31595;51.418;7.572;2023-03-04T07:35:28;101070.41;;;8.71;53.58
45888;BME280;31595;51.418;7.572;2023-03-04T07:37:55;101074.25;;;8.75;52.89
45888;BME280;31595;51.418;7.572;2023-03-04T07:40:23;101077.03;;;8.75;53.26
45888;BME280;31595;51.418;7.572;2023-03-04T07:42:53;101066.75;;;8.76;53.78
45888;BME280;31595;51.418;7.572;2023-03-04T07:45:28;101073.16;;;8.76;52.54
45888;BME280;31595;51.418;7.572;2023-03-04T07:47:58;101074.00;;;8.77;53.75
45888;BME280;31595;51.418;7.572;2023-03-04T07:50:26;101081.44;;;8.81;52.82
45888;BME280;31595;51.418;7.572;2023-03-04T07:53:05;101073.66;;;8.83;53.79
45888;BME280;31595;51.418;7.572;2023-03-04T07:55:36;101075.63;;;8.83;53.73
45888;BME280;31595;51.418;7.572;2023-03-04T07:58:15;101087.28;;;8.85;53.00
45888;BME280;31595;51.418;7.572;2023-03-04T08:00:44;101081.44;;;8.81;52.73
45888;BME280;31595;51.418;7.572;2023-03-04T08:03:12;101079.75;;;8.85;54.42
45888;BME280;31595;51.418;7.572;2023-03-04T08:05:39;101073.34;;;8.90;53.66
45888;BME280;31595;51.418;7.572;2023-03-04T08:08:07;101071.34;;;8.96;55.26
45888;BME280;31595;51.418;7.572;2023-03-04T08:10:35;101072.22;;;9.30;54.38
45888;BME280;31595;51.418;7.572;2023-03-04T08:13:05;101074.50;;;9.82;52.84
45888;BME280;31595;51.418;7.572;2023-03-04T08:15:40;101067.69;;;10.41;52.80
45888;BME280;31595;51.418;7.572;2023-03-04T08:18:08;101072.81;;;11.10;51.03
45888;BME280;31595;51.418;7.572;2023-03-04T08:20:46;101064.47;;;11.43;49.67
45888;BME280;31595;51.418;7.572;2023-03-04T08:23:14;101067.16;;;11.48;48.89
45888;BME280;31595;51.418;7.572;2023-03-04T08:25:41;101065.94;;;11.54;48.78
45888;BME280;31595;51.418;7.572;2023-03-04T08:28:15;101062.94;;;12.11;47.89
45888;BME280;31595;51.418;7.572;2023-03-04T08:30:57;101060.34;;;13.60;46.03
45888;BME280;31595;51.418;7.572;2023-03-04T08:33:27;101049.16;;;17.11;39.81
45888;BME280;31595;51.418;7.572;2023-03-04T08:35:55;101046.06;;;17.58;37.23
45888;BME280;31595;51.418;7.572;2023-03-04T08:38:23;101042.00;;;17.47;36.45
45888;BME280;31595;51.418;7.572;2023-03-04T08:40:55;101043.03;;;17.09;36.77
45888;BME280;31595;51.418;7.572;2023-03-04T08:43:24;101031.94;;;16.91;36.44
45888;BME280;31595;51.418;7.572;2023-03-04T08:45:57;101039.09;;;16.89;36.73
45888;BME280;31595;51.418;7.572;2023-03-04T08:48:24;101040.53;;;18.19;34.18
45888;BME280;31595;51.418;7.572;2023-03-04T08:50:56;101044.16;;;18.20;34.25
45888;BME280;31595;51.418;7.572;2023-03-04T08:53:24;101041.38;;;17.62;35.09
45888;BME280;31595;51.418;7.572;2023-03-04T08:55:51;101050.09;;;17.15;35.84
45888;BME280;31595;51.418;7.572;2023-03-04T08:58:19;101041.81;;;16.97;36.27
45888;BME280;31595;51.418;7.572;2023-03-04T09:00:49;101033.09;;;16.90;35.33
45888;BME280;31595;51.418;7.572;2023-03-04T09:03:19;101039.72;;;16.64;35.87
45888;BME280;31595;51.418;7.572;2023-03-04T09:05:49;101037.31;;;16.24;37.15
45888;BME280;31595;51.418;7.572;2023-03-04T09:08:24;101041.84;;;15.70;37.94
45888;BME280;31595;51.418;7.572;2023-03-04T09:10:53;101035.75;;;15.59;38.38
45888;BME280;31595;51.418;7.572;2023-03-04T09:13:21;101044.44;;;15.01;38.98
45888;BME280;31595;51.418;7.572;2023-03-04T09:15:51;101044.09;;;14.59;39.89
45888;BME280;31595;51.418;7.572;2023-03-04T09:18:35;101043.44;;;14.14;40.11
45888;BME280;31595;51.418;7.572;2023-03-04T09:21:05;101048.25;;;13.73;41.71
45888;BME280;31595;51.418;7.572;2023-03-04T09:23:44;101047.34;;;13.64;41.74
45888;BME280;31595;51.418;7.572;2023-03-04T09:26:17;101051.13;;;13.59;41.58
45888;BME280;31595;51.418;7.572;2023-03-04T09:28:54;101052.81;;;13.38;42.01
45888;BME280;31595;51.418;7.572;2023-03-04T09:31:23;101044.00;;;13.08;42.63
45888;BME280;31595;51.418;7.572;2023-03-04T09:33:52;101051.34;;;12.82;43.97
45888;BME280;31595;51.418;7.572;2023-03-04T09:36:20;101045.72;;;12.59;44.72
45888;BME280;31595;51.418;7.572;2023-03-04T09:38:47;101057.31;;;12.38;45.24
45888;BME280;31595;51.418;7.572;2023-03-04T09:41:16;101051.25;;;12.23;45.33
45888;BME280;31595;51.418;7.572;2023-03-04T09:43:45;101056.94;;;12.04;46.43
45888;BME280;31595;51.418;7.572;2023-03-04T09:46:15;101055.16;;;11.80;47.15
45888;BME280;31595;51.418;7.572;2023-03-04T09:48:48;101047.56;;;11.67;47.57
45888;BME280;31595;51.418;7.572;2023-03-04T09:51:21;101053.38;;;11.70;47.78
45888;BME280;31595;51.418;7.572;2023-03-04T09:53:59;101054.06;;;11.95;47.49
45888;BME280;31595;51.418;7.572;2023-03-04T09:56:36;101044.00;;;11.94;47.53
45888;BME280;31595;51.418;7.572;2023-03-04T09:59:11;101049.59;;;11.94;47.64
45888;BME280;31595;51.418;7.572;2023-03-04T10:01:46;101042.31;;;11.79;48.06
45888;BME280;31595;51.418;7.572;2023-03-04T10:04:17;101042.50;;;11.69;48.92
45888;BME280;31595;51.418;7.572;2023-03-04T10:06:49;101036.03;;;11.87;48.11
45888;BME280;31595;51.418;7.572;2023-03-04T10:09:21;101043.78;;;11.90;48.04
45888;BME280;31595;51.418;7.572;2023-03-04T10:11:56;101047.09;;;11.78;47.93
45888;BME280;31595;51.418;7.572;2023-03-04T10:14:32;101037.47;;;11.85;47.69
45888;BME280;31595;51.418;7.572;2023-03-04T10:17:06;101032.41;;;11.87;47.36
45888;BME280;31595;51.418;7.572;2023-03-04T10:19:46;101032.59;;;11.76;48.03
45888;BME280;31595;51.418;7.572;2023-03-04T10:22:24;101039.22;;;11.81;48.48
45888;BME280;31595;51.418;7.572;2023-03-04T10:24:55;101046.44;;;11.82;48.94
45888;BME280;31595;51.418;7.572;2023-03-04T10:27:22;101036.47;;;11.48;49.66
45888;BME280;31595;51.418;7.572;2023-03-04T10:29:49;101036.41;;;11.67;49.67
45888;BME280;31595;51.418;7.572;2023-03-04T10:32:19;101042.97;;;11.90;49.50
45888;BME280;31595;51.418;7.572;2023-03-04T10:34:47;101044.44;;;12.01;49.57
45888;BME280;31595;51.418;7.572;2023-03-04T10:37:14;101037.91;;;12.33;48.95
45888;BME280;31595;51.418;7.572;2023-03-04T10:39:44;101037.31;;;12.95;48.38
45888;BME280;31595;51.418;7.572;2023-03-04T10:42:27;101027.47;;;14.14;46.61
45888;BME280;31595;51.418;7.572;2023-03-04T10:45:02;101032.16;;;14.36;45.37
45888;BME280;31595;51.418;7.572;2023-03-04T10:47:31;101017.16;;;14.41;43.91
45888;BME280;31595;51.418;7.572;2023-03-04T10:50:01;101015.06;;;14.90;44.38
45888;BME280;31595;51.418;7.572;2023-03-04T10:52:30;101022.81;;;14.58;44.09
45888;BME280;31595;51.418;7.572;2023-03-04T10:55:02;101024.53;;;14.28;44.62
45888;BME280;31595;51.418;7.572;2023-03-04T10:57:33;101028.13;;;14.11;45.60
45888;BME280;31595;51.418;7.572;2023-03-04T11:00:25;101017.50;;;13.91;44.82
45888;BME280;31595;51.418;7.572;2023-03-04T11:03:19;101016.09;;;13.71;46.06
45888;BME280;31595;51.418;7.572;2023-03-04T11:05:47;101015.78;;;13.41;45.94
45888;BME280;31595;51.418;7.572;2023-03-04T11:08:16;101020.16;;;13.11;47.81
45888;BME280;31595;51.418;7.572;2023-03-04T11:10:46;101015.81;;;12.82;47.90
45888;BME280;31595;51.418;7.572;2023-03-04T11:13:16;101010.31;;;12.68;48.80
45888;BME280;31595;51.418;7.572;2023-03-04T11:15:49;101013.88;;;12.46;48.86
45888;BME280;31595;51.418;7.572;2023-03-04T11:18:19;101013.47;;;12.39;48.91
45888;BME280;31595;51.418;7.572;2023-03-04T11:20:56;101015.03;;;12.31;49.41
45888;BME280;31595;51.418;7.572;2023-03-04T11:23:31;101020.84;;;12.07;49.71
45888;BME280;31595;51.418;7.572;2023-03-04T11:26:03;101010.63;;;11.89;50.05
45888;BME280;31595;51.418;7.572;2023-03-04T11:28:41;101017.09;;;11.70;51.36
45888;BME280;31595;51.418;7.572;2023-03-04T11:31:13;101008.91;;;11.60;51.07
45888;BME280;31595;51.418;7.572;2023-03-04T11:33:46;101014.16;;;11.34;51.82
45888;BME280;31595;51.418;7.572;2023-03-04T11:36:25;101014.03;;;11.39;52.46
45888;BME280;31595;51.418;7.572;2023-03-04T11:38:55;101001.97;;;11.44;52.43
45888;BME280;31595;51.418;7.572;2023-03-04T11:41:28;100999.41;;;11.61;52.33
45888;BME280;31595;51.418;7.572;2023-03-04T11:43:57;100992.06;;;11.65;51.81
45888;BME280;31595;51.418;7.572;2023-03-04T11:47:03;100989.19;;;11.70;51.68
45888;BME280;31595;51.418;7.572;2023-03-04T11:52:51;100984.72;;;11.69;52.22
45888;BME280;31595;51.418;7.572;2023-03-04T11:55:30;100979.66;;;11.71;52.57
45888;BME280;31595;51.418;7.572;2023-03-04T12:01:07;100970.28;;;11.81;52.14
45888;BME280;31595;51.418;7.572;2023-03-04T12:04:06;100970.47;;;11.71;52.53
45888;BME280;31595;51.418;7.572;2023-03-04T12:06:44;100971.72;;;11.65;52.29
45888;BME280;31595;51.418;7.572;2023-03-04T12:09:31;100967.69;;;11.71;52.97
45888;BME280;31595;51.418;7.572;2023-03-04T12:12:21;100968.41;;;11.76;52.29
45888;BME280;31595;51.418;7.572;2023-03-04T12:15:01;100964.28;;;11.60;53.16
45888;BME280;31595;51.418;7.572;2023-03-04T12:17:42;100956.84;;;11.55;53.33
45888;BME280;31595;51.418;7.572;2023-03-04T12:20:34;100966.53;;;11.58;53.43
45888;BME280;31595;51.418;7.572;2023-03-04T12:23:14;100947.75;;;11.64;53.60
45888;BME280;31595;51.418;7.572;2023-03-04T12:25:50;100950.31;;;11.60;53.46
45888;BME280;31595;51.418;7.572;2023-03-04T12:28:29;100944.97;;;11.64;53.47
45888;BME280;31595;51.418;7.572;2023-03-04T12:31:10;100945.38;;;11.57;53.21
45888;BME280;31595;51.418;7.572;2023-03-04T12:33:52;100941.03;;;11.51;53.60
45888;BME280;31595;51.418;7.572;2023-03-04T12:36:28;100940.19;;;11.50;54.43
45888;BME280;31595;51.418;7.572;2023-03-04T12:39:17;100936.38;;;11.60;53.92
45888;BME280;31595;51.418;7.572;2023-03-04T12:41:53;100933.69;;;11.55;54.23
45888;BME280;31595;51.418;7.572;2023-03-04T12:44:24;100936.25;;;11.37;54.36
45888;BME280;31595;51.418;7.572;2023-03-04T12:47:06;100930.38;;;11.39;54.46
45888;BME280;31595;51.418;7.572;2023-03-04T12:49:45;100926.97;;;11.56;54.20
45888;BME280;31595;51.418;7.572;2023-03-04T12:52:20;100921.69;;;11.68;54.12
45888;BME280;31595;51.418;7.572;2023-03-04T12:54:55;100909.91;;;11.71;54.03
45888;BME280;31595;51.418;7.572;2023-03-04T12:57:25;100907.22;;;11.66;53.89
45888;BME280;31595;51.418;7.572;2023-03-04T13:00:04;100910.63;;;11.35;54.34
45888;BME280;31595;51.418;7.572;2023-03-04T13:02:45;100912.72;;;11.30;54.69
45888;BME280;31595;51.418;7.572;2023-03-04T13:05:39;100905.56;;;11.24;54.56
45888;BME280;31595;51.418;7.572;2023-03-04T13:08:19;100907.50;;;11.23;55.21
45888;BME280;31595;51.418;7.572;2023-03-04T13:10:49;100906.38;;;11.10;55.67
45888;BME280;31595;51.418;7.572;2023-03-04T13:13:35;100901.81;;;11.01;56.55
45888;BME280;31595;51.418;7.572;2023-03-04T13:16:04;100904.09;;;10.99;56.17
45888;BME280;31595;51.418;7.572;2023-03-04T13:18:34;100901.50;;;11.02;56.70
45888;BME280;31595;51.418;7.572;2023-03-04T13:21:17;100902.00;;;10.90;57.52
45888;BME280;31595;51.418;7.572;2023-03-04T13:23:47;100908.81;;;10.84;57.16
45888;BME280;31595;51.418;7.572;2023-03-04T13:26:36;100909.59;;;10.71;58.35